sensor_id;sensor_type;location;lat;lon;timestamp;P1;durP1;ratioP1;P2;durP2;ratioP2
39404;SDS011;25121;51.090;17.038;2023-03-14T00:06:05;9.43;;;5.78;;
39404;SDS011;25121;51.090;17.038;2023-03-14T00:07:28;11.18;;;5.55;;
39404;SDS011;25121;51.090;17.038;2023-03-14T00:08:54;11.35;;;6.00;;
39404;SDS011;25121;51.090;17.038;2023-03-14T00:10:16;9.90;;;6.03;;
39404;SDS011;25121;51.090;17.038;2023-03-14T00:11:38;11.38;;;6.13;;
39404;SDS011;25121;51.090;17.038;2023-03-14T00:13:00;8.55;;;5.90;;
39404;SDS011;25121;51.090;17.038;2023-03-14T00:14:21;9.80;;;6.30;;
39404;SDS011;25121;51.090;17.038;2023-03-14T00:15:44;11.13;;;6.63;;
39404;SDS011;25121;51.090;17.038;2023-03-14T00:17:05;13.13;;;7.20;;
39404;SDS011;25121;51.090;17.038;2023-03-14T00:18:28;10.13;;;6.47;;
39404;SDS011;25121;51.090;17.038;2023-03-14T00:19:51;17.00;;;6.30;;
39404;SDS011;25121;51.090;17.038;2023-03-14T00:21:16;9.82;;;7.10;;
39404;SDS011;25121;51.090;17.038;2023-03-14T00:22:39;13.50;;;7.40;;
39404;SDS011;25121;51.090;17.038;2023-03-14T00:24:03;10.95;;;6.32;;
39404;SDS011;25121;51.090;17.038;2023-03-14T00:25:26;14.52;;;7.18;;
39404;SDS011;25121;51.090;17.038;2023-03-14T00:26:48;12.68;;;6.57;;
39404;SDS011;25121;51.090;17.038;2023-03-14T00:28:09;13.80;;;7.28;;
39404;SDS011;25121;51.090;17.038;2023-03-14T00:29:33;10.50;;;6.50;;
39404;SDS011;25121;51.090;17.038;2023-03-14T00:30:56;14.35;;;6.50;;
39404;SDS011;25121;51.090;17.038;2023-03-14T00:32:19;12.45;;;7.80;;
39404;SDS011;25121;51.090;17.038;2023-03-14T00:33:41;14.18;;;7.28;;
39404;SDS011;25121;51.090;17.038;2023-03-14T00:35:07;14.82;;;7.53;;
39404;SDS011;25121;51.090;17.038;2023-03-14T00:36:30;10.23;;;6.47;;
39404;SDS011;25121;51.090;17.038;2023-03-14T00:37:52;10.27;;;6.60;;
39404;SDS011;25121;51.090;17.038;2023-03-14T00:39:16;12.05;;;6.78;;
39404;SDS011;25121;51.090;17.038;2023-03-14T00:40:38;9.43;;;6.43;;
39404;SDS011;25121;51.090;17.038;2023-03-14T00:42:03;18.88;;;7.05;;
39404;SDS011;25121;51.090;17.038;2023-03-14T00:43:25;16.23;;;6.65;;
39404;SDS011;25121;51.090;17.038;2023-03-14T00:44:50;13.63;;;6.80;;
39404;SDS011;25121;51.090;17.038;2023-03-14T00:46:12;10.90;;;6.97;;
39404;SDS011;25121;51.090;17.038;2023-03-14T00:47:39;9.77;;;6.60;;
39404;SDS011;25121;51.090;17.038;2023-03-14T00:49:06;9.85;;;6.20;;
39404;SDS011;25121;51.090;17.038;2023-03-14T00:50:31;10.27;;;6.57;;
39404;SDS011;25121;51.090;17.038;2023-03-14T00:51:54;9.20;;;6.72;;
39404;SDS011;25121;51.090;17.038;2023-03-14T00:53:19;10.70;;;6.10;;
39404;SDS011;25121;51.090;17.038;2023-03-14T00:54:48;9.50;;;6.13;;
39404;SDS011;25121;51.090;17.038;2023-03-14T00:56:11;11.02;;;6.05;;
39404;SDS011;25121;51.090;17.038;2023-03-14T00:57:34;12.27;;;6.32;;
39404;SDS011;25121;51.090;17.038;2023-03-14T00:58:58;8.88;;;6.28;;
39404;SDS011;25121;51.090;17.038;2023-03-14T01:00:22;13.68;;;6.40;;
39404;SDS011;25121;51.090;17.038;2023-03-14T01:01:44;9.27;;;6.18;;
39404;SDS011;25121;51.090;17.038;2023-03-14T01:03:07;9.80;;;6.20;;
39404;SDS011;25121;51.090;17.038;2023-03-14T01:04:31;12.75;;;6.85;;
39404;SDS011;25121;51.090;17.038;2023-03-14T01:05:53;8.32;;;5.93;;
39404;SDS011;25121;51.090;17.038;2023-03-14T01:07:16;12.60;;;6.13;;
39404;SDS011;25121;51.090;17.038;2023-03-14T01:08:41;8.05;;;5.53;;
39404;SDS011;25121;51.090;17.038;2023-03-14T01:10:03;11.35;;;6.05;;
39404;SDS011;25121;51.090;17.038;2023-03-14T01:11:26;8.70;;;5.55;;
39404;SDS011;25121;51.090;17.038;2023-03-14T01:12:50;10.88;;;5.65;;
39404;SDS011;25121;51.090;17.038;2023-03-14T01:14:12;13.20;;;5.82;;
39404;SDS011;25121;51.090;17.038;2023-03-14T01:15:44;8.30;;;5.68;;
39404;SDS011;25121;51.090;17.038;2023-03-14T01:17:10;9.23;;;5.93;;
39404;SDS011;25121;51.090;17.038;2023-03-14T01:18:42;7.60;;;5.97;;
39404;SDS011;25121;51.090;17.038;2023-03-14T01:20:05;9.98;;;6.20;;
39404;SDS011;25121;51.090;17.038;2023-03-14T01:21:30;10.75;;;6.30;;
39404;SDS011;25121;51.090;17.038;2023-03-14T01:22:55;11.05;;;5.45;;
39404;SDS011;25121;51.090;17.038;2023-03-14T01:24:18;10.00;;;4.97;;
39404;SDS011;25121;51.090;17.038;2023-03-14T01:25:45;8.10;;;5.15;;
39404;SDS011;25121;51.090;17.038;2023-03-14T01:27:07;9.20;;;5.70;;
39404;SDS011;25121;51.090;17.038;2023-03-14T01:28:32;8.23;;;5.68;;
39404;SDS011;25121;51.090;17.038;2023-03-14T01:29:54;9.68;;;5.40;;
39404;SDS011;25121;51.090;17.038;2023-03-14T01:31:16;10.80;;;5.85;;
39404;SDS011;25121;51.090;17.038;2023-03-14T01:32:39;7.97;;;5.50;;
39404;SDS011;25121;51.090;17.038;2023-03-14T01:34:03;8.68;;;5.18;;
39404;SDS011;25121;51.090;17.038;2023-03-14T01:35:26;10.98;;;5.78;;
39404;SDS011;25121;51.090;17.038;2023-03-14T01:36:49;9.38;;;5.97;;
39404;SDS011;25121;51.090;17.038;2023-03-14T01:38:13;8.85;;;5.63;;
39404;SDS011;25121;51.090;17.038;2023-03-14T01:39:35;8.40;;;5.47;;
39404;SDS011;25121;51.090;17.038;2023-03-14T01:40:56;9.50;;;5.93;;
39404;SDS011;25121;51.090;17.038;2023-03-14T01:42:19;8.70;;;5.65;;
39404;SDS011;25121;51.090;17.038;2023-03-14T01:43:41;6.63;;;5.60;;
39404;SDS011;25121;51.090;17.038;2023-03-14T01:45:03;7.18;;;4.72;;
39404;SDS011;25121;51.090;17.038;2023-03-14T01:46:32;9.57;;;5.60;;
39404;SDS011;25121;51.090;17.038;2023-03-14T01:47:57;8.13;;;5.90;;
39404;SDS011;25121;51.090;17.038;2023-03-14T01:49:20;7.80;;;5.77;;
39404;SDS011;25121;51.090;17.038;2023-03-14T01:50:52;11.38;;;5.95;;
39404;SDS011;25121;51.090;17.038;2023-03-14T01:52:15;10.45;;;6.47;;
39404;SDS011;25121;51.090;17.038;2023-03-14T01:53:41;9.60;;;6.38;;
39404;SDS011;25121;51.090;17.038;2023-03-14T01:55:05;8.73;;;6.18;;
39404;SDS011;25121;51.090;17.038;2023-03-14T01:56:29;8.30;;;6.32;;
39404;SDS011;25121;51.090;17.038;2023-03-14T01:57:52;14.50;;;7.05;;
39404;SDS011;25121;51.090;17.038;2023-03-14T01:59:18;15.27;;;8.82;;
39404;SDS011;25121;51.090;17.038;2023-03-14T02:00:40;11.75;;;6.95;;
39404;SDS011;25121;51.090;17.038;2023-03-14T02:02:04;12.05;;;7.15;;
39404;SDS011;25121;51.090;17.038;2023-03-14T02:03:28;12.13;;;6.93;;
39404;SDS011;25121;51.090;17.038;2023-03-14T02:04:52;10.63;;;6.78;;
39404;SDS011;25121;51.090;17.038;2023-03-14T02:06:22;12.05;;;7.07;;
39404;SDS011;25121;51.090;17.038;2023-03-14T02:07:51;13.55;;;6.63;;
39404;SDS011;25121;51.090;17.038;2023-03-14T02:09:21;9.20;;;6.00;;
39404;SDS011;25121;51.090;17.038;2023-03-14T02:10:44;10.07;;;6.65;;
39404;SDS011;25121;51.090;17.038;2023-03-14T02:12:11;11.77;;;6.53;;
39404;SDS011;25121;51.090;17.038;2023-03-14T02:13:43;10.30;;;6.03;;
39404;SDS011;25121;51.090;17.038;2023-03-14T02:15:24;12.23;;;7.35;;
39404;SDS011;25121;51.090;17.038;2023-03-14T02:17:03;11.70;;;6.22;;
39404;SDS011;25121;51.090;17.038;2023-03-14T02:18:46;12.55;;;7.10;;
39404;SDS011;25121;51.090;17.038;2023-03-14T02:20:30;10.60;;;6.30;;
39404;SDS011;25121;51.090;17.038;2023-03-14T02:22:02;10.73;;;6.57;;
39404;SDS011;25121;51.090;17.038;2023-03-14T02:23:53;9.65;;;5.82;;
39404;SDS011;25121;51.090;17.038;2023-03-14T02:25:34;12.38;;;6.00;;
39404;SDS011;25121;51.090;17.038;2023-03-14T02:27:06;8.80;;;5.43;;
39404;SDS011;25121;51.090;17.038;2023-03-14T02:28:33;11.45;;;5.75;;
39404;SDS011;25121;51.090;17.038;2023-03-14T02:29:57;9.77;;;5.55;;
39404;SDS011;25121;51.090;17.038;2023-03-14T02:31:22;7.78;;;5.63;;
39404;SDS011;25121;51.090;17.038;2023-03-14T02:32:46;11.77;;;5.40;;
39404;SDS011;25121;51.090;17.038;2023-03-14T02:34:09;9.30;;;6.47;;
39404;SDS011;25121;51.090;17.038;2023-03-14T02:35:32;11.93;;;6.03;;
39404;SDS011;25121;51.090;17.038;2023-03-14T02:36:57;8.38;;;5.60;;
39404;SDS011;25121;51.090;17.038;2023-03-14T02:38:20;10.20;;;6.22;;
39404;SDS011;25121;51.090;17.038;2023-03-14T02:39:52;7.75;;;5.90;;
39404;SDS011;25121;51.090;17.038;2023-03-14T02:41:13;9.35;;;5.70;;
39404;SDS011;25121;51.090;17.038;2023-03-14T02:42:44;9.93;;;6.30;;
39404;SDS011;25121;51.090;17.038;2023-03-14T02:44:06;8.57;;;5.75;;
39404;SDS011;25121;51.090;17.038;2023-03-14T02:47:17;11.13;;;6.07;;
39404;SDS011;25121;51.090;17.038;2023-03-14T02:48:44;7.07;;;5.43;;
39404;SDS011;25121;51.090;17.038;2023-03-14T02:50:10;10.63;;;5.70;;
39404;SDS011;25121;51.090;17.038;2023-03-14T02:51:33;11.98;;;5.88;;
39404;SDS011;25121;51.090;17.038;2023-03-14T02:52:58;12.15;;;5.70;;
39404;SDS011;25121;51.090;17.038;2023-03-14T02:54:20;8.90;;;5.78;;
39404;SDS011;25121;51.090;17.038;2023-03-14T02:55:45;10.05;;;6.25;;
39404;SDS011;25121;51.090;17.038;2023-03-14T02:57:13;10.15;;;5.70;;
39404;SDS011;25121;51.090;17.038;2023-03-14T02:58:49;10.98;;;6.45;;
39404;SDS011;25121;51.090;17.038;2023-03-14T03:00:32;11.00;;;5.85;;
39404;SDS011;25121;51.090;17.038;2023-03-14T03:01:55;13.35;;;6.03;;
39404;SDS011;25121;51.090;17.038;2023-03-14T03:03:18;11.35;;;6.00;;
39404;SDS011;25121;51.090;17.038;2023-03-14T03:04:42;9.65;;;6.35;;
39404;SDS011;25121;51.090;17.038;2023-03-14T03:06:08;11.48;;;6.10;;
39404;SDS011;25121;51.090;17.038;2023-03-14T03:07:31;10.50;;;5.75;;
39404;SDS011;25121;51.090;17.038;2023-03-14T03:10:14;6.75;;;4.93;;
39404;SDS011;25121;51.090;17.038;2023-03-14T03:11:39;7.85;;;5.35;;
39404;SDS011;25121;51.090;17.038;2023-03-14T03:13:06;10.90;;;5.85;;
39404;SDS011;25121;51.090;17.038;2023-03-14T03:14:28;9.75;;;5.63;;
39404;SDS011;25121;51.090;17.038;2023-03-14T03:15:55;7.40;;;5.20;;
39404;SDS011;25121;51.090;17.038;2023-03-14T03:17:18;14.27;;;6.30;;
39404;SDS011;25121;51.090;17.038;2023-03-14T03:18:39;10.55;;;5.10;;
39404;SDS011;25121;51.090;17.038;2023-03-14T03:20:01;9.05;;;5.78;;
39404;SDS011;25121;51.090;17.038;2023-03-14T03:21:25;10.00;;;4.65;;
39404;SDS011;25121;51.090;17.038;2023-03-14T03:22:47;7.57;;;4.78;;
39404;SDS011;25121;51.090;17.038;2023-03-14T03:24:10;8.23;;;4.47;;
39404;SDS011;25121;51.090;17.038;2023-03-14T03:25:32;8.13;;;5.00;;
39404;SDS011;25121;51.090;17.038;2023-03-14T03:26:57;12.27;;;5.32;;
39404;SDS011;25121;51.090;17.038;2023-03-14T03:28:20;11.77;;;5.22;;
39404;SDS011;25121;51.090;17.038;2023-03-14T03:31:06;7.32;;;5.07;;
39404;SDS011;25121;51.090;17.038;2023-03-14T03:32:31;7.15;;;4.82;;
39404;SDS011;25121;51.090;17.038;2023-03-14T03:33:54;7.68;;;4.43;;
39404;SDS011;25121;51.090;17.038;2023-03-14T03:35:17;10.60;;;5.00;;
39404;SDS011;25121;51.090;17.038;2023-03-14T03:36:38;8.27;;;4.80;;
39404;SDS011;25121;51.090;17.038;2023-03-14T03:38:01;6.40;;;4.30;;
39404;SDS011;25121;51.090;17.038;2023-03-14T03:39:30;10.98;;;4.85;;
39404;SDS011;25121;51.090;17.038;2023-03-14T03:40:51;9.38;;;5.03;;
39404;SDS011;25121;51.090;17.038;2023-03-14T03:42:16;6.93;;;4.70;;
39404;SDS011;25121;51.090;17.038;2023-03-14T03:43:39;8.18;;;4.95;;
39404;SDS011;25121;51.090;17.038;2023-03-14T03:45:05;8.63;;;5.10;;
39404;SDS011;25121;51.090;17.038;2023-03-14T03:46:32;8.60;;;4.78;;
39404;SDS011;25121;51.090;17.038;2023-03-14T03:47:57;8.35;;;5.82;;
39404;SDS011;25121;51.090;17.038;2023-03-14T03:49:19;7.38;;;4.90;;
39404;SDS011;25121;51.090;17.038;2023-03-14T03:50:43;8.85;;;4.53;;
39404;SDS011;25121;51.090;17.038;2023-03-14T03:52:09;10.23;;;4.97;;
39404;SDS011;25121;51.090;17.038;2023-03-14T03:53:32;9.70;;;5.00;;
39404;SDS011;25121;51.090;17.038;2023-03-14T03:54:59;8.20;;;4.80;;
39404;SDS011;25121;51.090;17.038;2023-03-14T03:56:21;9.23;;;4.70;;
39404;SDS011;25121;51.090;17.038;2023-03-14T03:57:46;8.70;;;5.13;;
39404;SDS011;25121;51.090;17.038;2023-03-14T03:59:10;8.82;;;5.28;;
39404;SDS011;25121;51.090;17.038;2023-03-14T04:00:34;10.98;;;4.80;;
39404;SDS011;25121;51.090;17.038;2023-03-14T04:01:56;8.18;;;4.75;;
39404;SDS011;25121;51.090;17.038;2023-03-14T04:03:18;7.22;;;4.63;;
39404;SDS011;25121;51.090;17.038;2023-03-14T04:04:40;7.70;;;4.57;;
39404;SDS011;25121;51.090;17.038;2023-03-14T04:06:03;9.77;;;5.07;;
39404;SDS011;25121;51.090;17.038;2023-03-14T04:07:31;8.65;;;5.15;;
39404;SDS011;25121;51.090;17.038;2023-03-14T04:08:53;9.35;;;5.07;;
39404;SDS011;25121;51.090;17.038;2023-03-14T04:10:39;6.63;;;4.32;;
39404;SDS011;25121;51.090;17.038;2023-03-14T04:12:15;6.20;;;4.60;;
39404;SDS011;25121;51.090;17.038;2023-03-14T04:14:00;9.15;;;5.05;;
39404;SDS011;25121;51.090;17.038;2023-03-14T04:15:23;7.35;;;4.47;;
39404;SDS011;25121;51.090;17.038;2023-03-14T04:16:47;6.97;;;4.40;;
39404;SDS011;25121;51.090;17.038;2023-03-14T04:18:11;9.32;;;4.35;;
39404;SDS011;25121;51.090;17.038;2023-03-14T04:19:35;8.88;;;4.50;;
39404;SDS011;25121;51.090;17.038;2023-03-14T04:20:58;5.60;;;4.18;;
39404;SDS011;25121;51.090;17.038;2023-03-14T04:22:30;6.20;;;5.00;;
39404;SDS011;25121;51.090;17.038;2023-03-14T04:23:52;9.18;;;4.88;;
39404;SDS011;25121;51.090;17.038;2023-03-14T04:25:16;8.73;;;6.43;;
39404;SDS011;25121;51.090;17.038;2023-03-14T04:26:45;8.68;;;5.18;;
39404;SDS011;25121;51.090;17.038;2023-03-14T04:28:08;8.52;;;4.82;;
39404;SDS011;25121;51.090;17.038;2023-03-14T04:29:30;8.07;;;4.65;;
39404;SDS011;25121;51.090;17.038;2023-03-14T04:30:52;7.13;;;4.07;;
39404;SDS011;25121;51.090;17.038;2023-03-14T04:32:17;9.30;;;4.55;;
39404;SDS011;25121;51.090;17.038;2023-03-14T04:33:40;5.43;;;4.47;;
39404;SDS011;25121;51.090;17.038;2023-03-14T04:35:07;8.43;;;4.70;;
39404;SDS011;25121;51.090;17.038;2023-03-14T04:36:29;6.63;;;4.35;;
39404;SDS011;25121;51.090;17.038;2023-03-14T04:37:56;6.95;;;4.32;;
39404;SDS011;25121;51.090;17.038;2023-03-14T04:39:18;8.00;;;4.53;;
39404;SDS011;25121;51.090;17.038;2023-03-14T04:40:48;6.22;;;4.15;;
39404;SDS011;25121;51.090;17.038;2023-03-14T04:42:13;6.68;;;4.30;;
39404;SDS011;25121;51.090;17.038;2023-03-14T04:43:35;9.82;;;4.60;;
39404;SDS011;25121;51.090;17.038;2023-03-14T04:45:04;6.05;;;4.70;;
39404;SDS011;25121;51.090;17.038;2023-03-14T04:46:29;6.28;;;4.90;;
39404;SDS011;25121;51.090;17.038;2023-03-14T04:47:53;6.63;;;4.30;;
39404;SDS011;25121;51.090;17.038;2023-03-14T04:49:16;6.43;;;4.85;;
39404;SDS011;25121;51.090;17.038;2023-03-14T04:50:38;7.43;;;4.10;;
39404;SDS011;25121;51.090;17.038;2023-03-14T04:52:01;6.22;;;4.88;;
39404;SDS011;25121;51.090;17.038;2023-03-14T04:53:25;7.90;;;4.78;;
39404;SDS011;25121;51.090;17.038;2023-03-14T04:54:49;7.03;;;4.88;;
39404;SDS011;25121;51.090;17.038;2023-03-14T04:56:13;6.80;;;4.80;;
39404;SDS011;25121;51.090;17.038;2023-03-14T04:57:36;8.82;;;4.40;;
39404;SDS011;25121;51.090;17.038;2023-03-14T04:59:00;7.40;;;4.40;;
39404;SDS011;25121;51.090;17.038;2023-03-14T05:00:24;8.50;;;4.80;;
39404;SDS011;25121;51.090;17.038;2023-03-14T05:02:22;7.07;;;4.60;;
39404;SDS011;25121;51.090;17.038;2023-03-14T05:03:54;9.38;;;4.68;;
39404;SDS011;25121;51.090;17.038;2023-03-14T05:05:35;8.70;;;4.78;;
39404;SDS011;25121;51.090;17.038;2023-03-14T05:07:17;9.40;;;4.85;;
39404;SDS011;25121;51.090;17.038;2023-03-14T05:08:59;10.07;;;4.82;;
39404;SDS011;25121;51.090;17.038;2023-03-14T05:10:42;12.15;;;5.90;;
39404;SDS011;25121;51.090;17.038;2023-03-14T05:12:40;7.63;;;4.60;;
39404;SDS011;25121;51.090;17.038;2023-03-14T05:14:36;9.15;;;5.05;;
39404;SDS011;25121;51.090;17.038;2023-03-14T05:16:29;9.27;;;4.90;;
39404;SDS011;25121;51.090;17.038;2023-03-14T05:18:03;9.57;;;6.10;;
39404;SDS011;25121;51.090;17.038;2023-03-14T05:19:45;8.05;;;5.30;;
39404;SDS011;25121;51.090;17.038;2023-03-14T05:21:08;9.30;;;5.95;;
39404;SDS011;25121;51.090;17.038;2023-03-14T05:22:58;7.07;;;5.05;;
39404;SDS011;25121;51.090;17.038;2023-03-14T05:24:43;7.97;;;4.97;;
39404;SDS011;25121;51.090;17.038;2023-03-14T05:26:34;9.25;;;4.78;;
39404;SDS011;25121;51.090;17.038;2023-03-14T05:28:16;8.38;;;5.30;;
39404;SDS011;25121;51.090;17.038;2023-03-14T05:29:47;9.73;;;5.43;;
39404;SDS011;25121;51.090;17.038;2023-03-14T05:31:13;8.05;;;5.35;;
39404;SDS011;25121;51.090;17.038;2023-03-14T05:32:53;9.50;;;5.50;;
39404;SDS011;25121;51.090;17.038;2023-03-14T05:34:30;8.38;;;5.05;;
39404;SDS011;25121;51.090;17.038;2023-03-14T05:36:17;11.35;;;5.22;;
39404;SDS011;25121;51.090;17.038;2023-03-14T05:37:54;9.75;;;4.78;;
39404;SDS011;25121;51.090;17.038;2023-03-14T05:39:36;14.90;;;5.43;;
39404;SDS011;25121;51.090;17.038;2023-03-14T05:41:21;9.77;;;5.07;;
39404;SDS011;25121;51.090;17.038;2023-03-14T05:43:03;7.00;;;5.13;;
39404;SDS011;25121;51.090;17.038;2023-03-14T05:44:28;11.27;;;5.43;;
39404;SDS011;25121;51.090;17.038;2023-03-14T05:46:28;7.40;;;5.13;;
39404;SDS011;25121;51.090;17.038;2023-03-14T05:48:04;10.65;;;5.50;;
39404;SDS011;25121;51.090;17.038;2023-03-14T05:49:49;8.43;;;5.55;;
39404;SDS011;25121;51.090;17.038;2023-03-14T05:51:31;10.00;;;5.72;;
39404;SDS011;25121;51.090;17.038;2023-03-14T05:53:15;9.82;;;5.45;;
39404;SDS011;25121;51.090;17.038;2023-03-14T05:54:45;12.40;;;6.13;;
39404;SDS011;25121;51.090;17.038;2023-03-14T05:56:30;7.88;;;4.93;;
39404;SDS011;25121;51.090;17.038;2023-03-14T05:58:06;9.75;;;5.85;;
39404;SDS011;25121;51.090;17.038;2023-03-14T05:59:53;10.60;;;5.70;;
39404;SDS011;25121;51.090;17.038;2023-03-14T06:01:31;11.20;;;6.00;;
39404;SDS011;25121;51.090;17.038;2023-03-14T06:03:02;9.27;;;5.95;;
39404;SDS011;25121;51.090;17.038;2023-03-14T06:04:30;12.80;;;5.57;;
39404;SDS011;25121;51.090;17.038;2023-03-14T06:05:52;6.07;;;4.38;;
39404;SDS011;25121;51.090;17.038;2023-03-14T06:07:18;9.40;;;5.85;;
39404;SDS011;25121;51.090;17.038;2023-03-14T06:08:40;8.68;;;5.50;;
39404;SDS011;25121;51.090;17.038;2023-03-14T06:10:04;10.48;;;6.60;;
39404;SDS011;25121;51.090;17.038;2023-03-14T06:11:28;8.40;;;5.30;;
39404;SDS011;25121;51.090;17.038;2023-03-14T06:12:51;9.90;;;5.80;;
39404;SDS011;25121;51.090;17.038;2023-03-14T06:14:14;10.27;;;5.40;;
39404;SDS011;25121;51.090;17.038;2023-03-14T06:15:41;11.55;;;5.45;;
39404;SDS011;25121;51.090;17.038;2023-03-14T06:17:05;13.43;;;5.75;;
39404;SDS011;25121;51.090;17.038;2023-03-14T06:18:34;9.68;;;5.75;;
39404;SDS011;25121;51.090;17.038;2023-03-14T06:20:00;12.93;;;6.78;;
39404;SDS011;25121;51.090;17.038;2023-03-14T06:21:23;8.30;;;5.18;;
39404;SDS011;25121;51.090;17.038;2023-03-14T06:22:50;7.10;;;5.65;;
39404;SDS011;25121;51.090;17.038;2023-03-14T06:24:13;10.73;;;5.65;;
39404;SDS011;25121;51.090;17.038;2023-03-14T06:25:40;10.27;;;6.47;;
39404;SDS011;25121;51.090;17.038;2023-03-14T06:27:02;10.30;;;6.57;;
39404;SDS011;25121;51.090;17.038;2023-03-14T06:28:25;10.32;;;5.88;;
39404;SDS011;25121;51.090;17.038;2023-03-14T06:29:51;9.85;;;5.68;;
39404;SDS011;25121;51.090;17.038;2023-03-14T06:31:14;15.45;;;6.38;;
39404;SDS011;25121;51.090;17.038;2023-03-14T06:32:51;8.38;;;5.05;;
39404;SDS011;25121;51.090;17.038;2023-03-14T06:34:14;7.13;;;5.47;;
39404;SDS011;25121;51.090;17.038;2023-03-14T06:35:37;13.15;;;6.47;;
39404;SDS011;25121;51.090;17.038;2023-03-14T06:36:59;10.40;;;5.40;;
39404;SDS011;25121;51.090;17.038;2023-03-14T06:38:23;8.57;;;5.72;;
39404;SDS011;25121;51.090;17.038;2023-03-14T06:39:48;13.73;;;6.43;;
39404;SDS011;25121;51.090;17.038;2023-03-14T06:41:28;16.05;;;6.03;;
39404;SDS011;25121;51.090;17.038;2023-03-14T06:42:51;10.57;;;5.60;;
39404;SDS011;25121;51.090;17.038;2023-03-14T06:44:14;10.35;;;5.75;;
39404;SDS011;25121;51.090;17.038;2023-03-14T06:45:36;12.35;;;5.88;;
39404;SDS011;25121;51.090;17.038;2023-03-14T06:46:59;8.55;;;5.13;;
39404;SDS011;25121;51.090;17.038;2023-03-14T06:48:21;12.82;;;5.90;;
39404;SDS011;25121;51.090;17.038;2023-03-14T06:49:46;9.77;;;5.70;;
39404;SDS011;25121;51.090;17.038;2023-03-14T06:51:10;9.00;;;5.15;;
39404;SDS011;25121;51.090;17.038;2023-03-14T06:52:33;10.25;;;5.50;;
39404;SDS011;25121;51.090;17.038;2023-03-14T06:53:57;9.95;;;5.65;;
39404;SDS011;25121;51.090;17.038;2023-03-14T06:55:22;9.07;;;6.00;;
39404;SDS011;25121;51.090;17.038;2023-03-14T06:56:45;11.77;;;6.60;;
39404;SDS011;25121;51.090;17.038;2023-03-14T06:58:08;10.65;;;6.07;;
39404;SDS011;25121;51.090;17.038;2023-03-14T06:59:35;13.15;;;6.15;;
39404;SDS011;25121;51.090;17.038;2023-03-14T07:00:57;8.30;;;6.25;;
39404;SDS011;25121;51.090;17.038;2023-03-14T07:02:24;9.10;;;5.45;;
39404;SDS011;25121;51.090;17.038;2023-03-14T07:04:11;9.23;;;6.03;;
39404;SDS011;25121;51.090;17.038;2023-03-14T07:05:37;11.35;;;6.50;;
39404;SDS011;25121;51.090;17.038;2023-03-14T07:07:01;8.88;;;5.53;;
39404;SDS011;25121;51.090;17.038;2023-03-14T07:08:26;8.32;;;5.68;;
39404;SDS011;25121;51.090;17.038;2023-03-14T07:09:49;11.07;;;5.78;;
39404;SDS011;25121;51.090;17.038;2023-03-14T07:11:12;9.35;;;5.53;;
39404;SDS011;25121;51.090;17.038;2023-03-14T07:12:35;11.13;;;5.95;;
39404;SDS011;25121;51.090;17.038;2023-03-14T07:15:19;10.23;;;5.95;;
39404;SDS011;25121;51.090;17.038;2023-03-14T07:16:46;9.13;;;5.97;;
39404;SDS011;25121;51.090;17.038;2023-03-14T07:18:08;10.80;;;5.80;;
39404;SDS011;25121;51.090;17.038;2023-03-14T07:19:31;11.90;;;5.70;;
39404;SDS011;25121;51.090;17.038;2023-03-14T07:22:14;13.90;;;6.60;;
39404;SDS011;25121;51.090;17.038;2023-03-14T07:23:37;8.77;;;5.63;;
39404;SDS011;25121;51.090;17.038;2023-03-14T07:25:01;8.52;;;5.45;;
39404;SDS011;25121;51.090;17.038;2023-03-14T07:26:51;11.52;;;5.90;;
39404;SDS011;25121;51.090;17.038;2023-03-14T07:28:13;9.45;;;6.18;;
39404;SDS011;25121;51.090;17.038;2023-03-14T07:29:38;12.23;;;5.65;;
39404;SDS011;25121;51.090;17.038;2023-03-14T07:31:01;13.32;;;6.30;;
39404;SDS011;25121;51.090;17.038;2023-03-14T07:32:25;12.00;;;5.15;;
39404;SDS011;25121;51.090;17.038;2023-03-14T07:33:47;12.88;;;6.05;;
39404;SDS011;25121;51.090;17.038;2023-03-14T07:35:12;9.40;;;6.15;;
39404;SDS011;25121;51.090;17.038;2023-03-14T07:36:34;11.50;;;6.65;;
39404;SDS011;25121;51.090;17.038;2023-03-14T07:37:57;7.68;;;5.28;;
39404;SDS011;25121;51.090;17.038;2023-03-14T07:39:26;9.10;;;5.05;;
39404;SDS011;25121;51.090;17.038;2023-03-14T07:41:13;12.65;;;5.55;;
39404;SDS011;25121;51.090;17.038;2023-03-14T07:43:01;10.05;;;5.82;;
39404;SDS011;25121;51.090;17.038;2023-03-14T07:44:40;9.90;;;5.97;;
39404;SDS011;25121;51.090;17.038;2023-03-14T07:46:03;9.85;;;5.93;;
39404;SDS011;25121;51.090;17.038;2023-03-14T07:47:25;13.23;;;5.30;;
39404;SDS011;25121;51.090;17.038;2023-03-14T07:48:47;10.48;;;5.80;;
39404;SDS011;25121;51.090;17.038;2023-03-14T07:50:10;11.70;;;5.20;;
39404;SDS011;25121;51.090;17.038;2023-03-14T07:51:32;10.60;;;6.03;;
39404;SDS011;25121;51.090;17.038;2023-03-14T07:52:54;10.85;;;5.50;;
39404;SDS011;25121;51.090;17.038;2023-03-14T07:54:16;9.75;;;5.68;;
39404;SDS011;25121;51.090;17.038;2023-03-14T07:55:42;10.93;;;5.32;;
39404;SDS011;25121;51.090;17.038;2023-03-14T07:57:08;13.05;;;5.93;;
39404;SDS011;25121;51.090;17.038;2023-03-14T07:58:30;8.38;;;5.78;;
39404;SDS011;25121;51.090;17.038;2023-03-14T07:59:52;11.82;;;6.05;;
39404;SDS011;25121;51.090;17.038;2023-03-14T08:01:15;10.20;;;5.95;;
39404;SDS011;25121;51.090;17.038;2023-03-14T08:02:37;11.85;;;5.72;;
39404;SDS011;25121;51.090;17.038;2023-03-14T08:03:59;9.07;;;5.95;;
39404;SDS011;25121;51.090;17.038;2023-03-14T08:05:21;11.20;;;6.03;;
39404;SDS011;25121;51.090;17.038;2023-03-14T08:06:43;10.55;;;5.45;;
39404;SDS011;25121;51.090;17.038;2023-03-14T08:08:05;11.27;;;6.40;;
39404;SDS011;25121;51.090;17.038;2023-03-14T08:09:31;10.50;;;5.80;;
39404;SDS011;25121;51.090;17.038;2023-03-14T08:10:53;11.20;;;6.50;;
39404;SDS011;25121;51.090;17.038;2023-03-14T08:12:18;11.73;;;5.88;;
39404;SDS011;25121;51.090;17.038;2023-03-14T08:13:41;11.35;;;5.90;;
39404;SDS011;25121;51.090;17.038;2023-03-14T08:15:10;11.20;;;5.85;;
39404;SDS011;25121;51.090;17.038;2023-03-14T08:16:32;10.60;;;6.30;;
39404;SDS011;25121;51.090;17.038;2023-03-14T08:17:55;9.55;;;5.45;;
39404;SDS011;25121;51.090;17.038;2023-03-14T08:19:18;12.68;;;6.20;;
39404;SDS011;25121;51.090;17.038;2023-03-14T08:20:41;10.88;;;6.05;;
39404;SDS011;25121;51.090;17.038;2023-03-14T08:22:07;9.57;;;5.82;;
39404;SDS011;25121;51.090;17.038;2023-03-14T08:23:31;8.48;;;4.97;;
39404;SDS011;25121;51.090;17.038;2023-03-14T08:24:53;8.75;;;6.22;;
39404;SDS011;25121;51.090;17.038;2023-03-14T08:26:15;10.15;;;6.28;;
39404;SDS011;25121;51.090;17.038;2023-03-14T08:27:39;9.48;;;5.88;;
39404;SDS011;25121;51.090;17.038;2023-03-14T08:29:02;13.00;;;6.40;;
39404;SDS011;25121;51.090;17.038;2023-03-14T08:30:27;11.60;;;6.10;;
39404;SDS011;25121;51.090;17.038;2023-03-14T08:31:49;9.77;;;5.90;;
39404;SDS011;25121;51.090;17.038;2023-03-14T08:33:10;11.90;;;6.60;;
39404;SDS011;25121;51.090;17.038;2023-03-14T08:34:34;10.38;;;6.28;;
39404;SDS011;25121;51.090;17.038;2023-03-14T08:35:59;10.95;;;6.38;;
39404;SDS011;25121;51.090;17.038;2023-03-14T08:37:22;14.50;;;6.88;;
39404;SDS011;25121;51.090;17.038;2023-03-14T08:38:46;12.38;;;6.88;;
39404;SDS011;25121;51.090;17.038;2023-03-14T08:40:08;14.90;;;7.72;;
39404;SDS011;25121;51.090;17.038;2023-03-14T08:41:32;11.55;;;6.57;;
39404;SDS011;25121;51.090;17.038;2023-03-14T08:43:02;10.95;;;7.45;;
39404;SDS011;25121;51.090;17.038;2023-03-14T08:44:24;13.02;;;7.50;;